sensor_id;sensor_type;location;lat;lon;timestamp;P1;durP1;ratioP1;P2;durP2;ratioP2
7821;SDS011;3956;50.558;9.678;2023-06-04T00:02:27;5.93;;;2.03;;
7821;SDS011;3956;50.558;9.678;2023-06-04T00:04:57;4.63;;;1.73;;
7821;SDS011;3956;50.558;9.678;2023-06-04T00:07:30;3.87;;;1.83;;
7821;SDS011;3956;50.558;9.678;2023-06-04T00:10:01;3.50;;;2.10;;
7821;SDS011;3956;50.558;9.678;2023-06-04T00:12:50;4.50;;;1.60;;
7821;SDS011;3956;50.558;9.678;2023-06-04T00:15:51;2.30;;;1.60;;
7821;SDS011;3956;50.558;9.678;2023-06-04T00:18:22;3.73;;;1.70;;
7821;SDS011;3956;50.558;9.678;2023-06-04T00:20:58;2.87;;;1.80;;
7821;SDS011;3956;50.558;9.678;2023-06-04T00:23:28;3.97;;;2.00;;
7821;SDS011;3956;50.558;9.678;2023-06-04T00:26:03;2.63;;;1.80;;
7821;SDS011;3956;50.558;9.678;2023-06-04T00:28:58;2.60;;;1.90;;
7821;SDS011;3956;50.558;9.678;2023-06-04T00:31:48;4.10;;;1.90;;
7821;SDS011;3956;50.558;9.678;2023-06-04T00:34:34;4.33;;;1.87;;
7821;SDS011;3956;50.558;9.678;2023-06-04T00:37:03;3.63;;;1.80;;
7821;SDS011;3956;50.558;9.678;2023-06-04T00:39:40;4.33;;;2.03;;
7821;SDS011;3956;50.558;9.678;2023-06-04T00:42:15;3.73;;;1.80;;
7821;SDS011;3956;50.558;9.678;2023-06-04T00:44:49;3.13;;;1.97;;
7821;SDS011;3956;50.558;9.678;2023-06-04T00:47:21;2.90;;;1.73;;
7821;SDS011;3956;50.558;9.678;2023-06-04T00:52:55;5.93;;;2.13;;
7821;SDS011;3956;50.558;9.678;2023-06-04T00:55:29;2.70;;;1.70;;
7821;SDS011;3956;50.558;9.678;2023-06-04T00:58:01;2.03;;;1.70;;
7821;SDS011;3956;50.558;9.678;2023-06-04T01:00:39;3.77;;;2.13;;
7821;SDS011;3956;50.558;9.678;2023-06-04T01:03:14;6.10;;;1.83;;
7821;SDS011;3956;50.558;9.678;2023-06-04T01:05:57;2.57;;;2.10;;
7821;SDS011;3956;50.558;9.678;2023-06-04T01:08:43;3.33;;;2.10;;
7821;SDS011;3956;50.558;9.678;2023-06-04T01:11:30;3.67;;;1.90;;
7821;SDS011;3956;50.558;9.678;2023-06-04T01:14:10;3.47;;;1.60;;
7821;SDS011;3956;50.558;9.678;2023-06-04T01:16:59;1.97;;;1.60;;
7821;SDS011;3956;50.558;9.678;2023-06-04T01:22:43;2.93;;;1.93;;
7821;SDS011;3956;50.558;9.678;2023-06-04T01:25:24;2.97;;;2.10;;
7821;SDS011;3956;50.558;9.678;2023-06-04T01:27:55;6.47;;;2.00;;
7821;SDS011;3956;50.558;9.678;2023-06-04T01:30:32;3.27;;;1.87;;
7821;SDS011;3956;50.558;9.678;2023-06-04T01:33:03;2.40;;;1.70;;
7821;SDS011;3956;50.558;9.678;2023-06-04T01:35:31;4.50;;;2.07;;
7821;SDS011;3956;50.558;9.678;2023-06-04T01:38:00;2.63;;;1.90;;
7821;SDS011;3956;50.558;9.678;2023-06-04T01:40:30;3.67;;;2.13;;
7821;SDS011;3956;50.558;9.678;2023-06-04T01:43:00;3.93;;;2.03;;
7821;SDS011;3956;50.558;9.678;2023-06-04T01:45:36;5.50;;;2.37;;
7821;SDS011;3956;50.558;9.678;2023-06-04T01:48:07;5.00;;;2.20;;
7821;SDS011;3956;50.558;9.678;2023-06-04T01:50:37;3.77;;;1.90;;
7821;SDS011;3956;50.558;9.678;2023-06-04T01:53:08;3.60;;;2.23;;
7821;SDS011;3956;50.558;9.678;2023-06-04T01:55:36;3.17;;;2.10;;
7821;SDS011;3956;50.558;9.678;2023-06-04T01:58:08;5.33;;;1.93;;
7821;SDS011;3956;50.558;9.678;2023-06-04T02:01:05;3.70;;;2.20;;
7821;SDS011;3956;50.558;9.678;2023-06-04T02:03:36;4.77;;;2.17;;
7821;SDS011;3956;50.558;9.678;2023-06-04T02:06:09;3.33;;;2.00;;
7821;SDS011;3956;50.558;9.678;2023-06-04T02:08:37;3.13;;;2.10;;
7821;SDS011;3956;50.558;9.678;2023-06-04T02:11:09;2.67;;;1.80;;
7821;SDS011;3956;50.558;9.678;2023-06-04T02:13:37;4.17;;;2.53;;
7821;SDS011;3956;50.558;9.678;2023-06-04T02:16:13;2.77;;;2.30;;
7821;SDS011;3956;50.558;9.678;2023-06-04T02:18:43;3.70;;;2.10;;
7821;SDS011;3956;50.558;9.678;2023-06-04T02:21:13;3.00;;;1.87;;
7821;SDS011;3956;50.558;9.678;2023-06-04T02:23:44;4.73;;;2.30;;
7821;SDS011;3956;50.558;9.678;2023-06-04T02:26:12;7.33;;;2.10;;
7821;SDS011;3956;50.558;9.678;2023-06-04T02:28:41;3.40;;;2.23;;
7821;SDS011;3956;50.558;9.678;2023-06-04T02:31:13;4.90;;;2.20;;
7821;SDS011;3956;50.558;9.678;2023-06-04T02:33:45;3.70;;;2.00;;
7821;SDS011;3956;50.558;9.678;2023-06-04T02:36:14;2.40;;;1.97;;
7821;SDS011;3956;50.558;9.678;2023-06-04T02:38:46;3.63;;;2.10;;
7821;SDS011;3956;50.558;9.678;2023-06-04T02:41:16;5.90;;;2.40;;
7821;SDS011;3956;50.558;9.678;2023-06-04T02:43:45;3.17;;;1.77;;
7821;SDS011;3956;50.558;9.678;2023-06-04T02:46:18;3.67;;;2.10;;
7821;SDS011;3956;50.558;9.678;2023-06-04T02:48:49;5.13;;;2.10;;
7821;SDS011;3956;50.558;9.678;2023-06-04T02:51:18;3.47;;;1.90;;
7821;SDS011;3956;50.558;9.678;2023-06-04T02:53:55;4.50;;;2.10;;
7821;SDS011;3956;50.558;9.678;2023-06-04T02:56:23;5.10;;;2.10;;
7821;SDS011;3956;50.558;9.678;2023-06-04T02:58:55;5.43;;;2.20;;
7821;SDS011;3956;50.558;9.678;2023-06-04T03:01:46;3.03;;;2.17;;
7821;SDS011;3956;50.558;9.678;2023-06-04T03:04:18;5.77;;;2.03;;
7821;SDS011;3956;50.558;9.678;2023-06-04T03:06:51;2.90;;;2.00;;
7821;SDS011;3956;50.558;9.678;2023-06-04T03:09:32;4.10;;;1.90;;
7821;SDS011;3956;50.558;9.678;2023-06-04T03:12:01;2.37;;;1.93;;
7821;SDS011;3956;50.558;9.678;2023-06-04T03:14:36;3.67;;;1.90;;
7821;SDS011;3956;50.558;9.678;2023-06-04T03:17:09;3.63;;;2.10;;
7821;SDS011;3956;50.558;9.678;2023-06-04T03:19:39;3.70;;;2.30;;
7821;SDS011;3956;50.558;9.678;2023-06-04T03:22:12;4.37;;;2.23;;
7821;SDS011;3956;50.558;9.678;2023-06-04T03:24:41;3.70;;;2.17;;
7821;SDS011;3956;50.558;9.678;2023-06-04T03:27:14;2.90;;;1.80;;
7821;SDS011;3956;50.558;9.678;2023-06-04T03:29:43;5.40;;;2.40;;
7821;SDS011;3956;50.558;9.678;2023-06-04T03:32:17;7.60;;;2.20;;
7821;SDS011;3956;50.558;9.678;2023-06-04T03:34:47;3.17;;;1.97;;
7821;SDS011;3956;50.558;9.678;2023-06-04T03:37:17;3.50;;;2.47;;
7821;SDS011;3956;50.558;9.678;2023-06-04T03:39:47;5.33;;;2.20;;
7821;SDS011;3956;50.558;9.678;2023-06-04T03:42:17;4.67;;;2.10;;
7821;SDS011;3956;50.558;9.678;2023-06-04T03:44:51;3.43;;;2.00;;
7821;SDS011;3956;50.558;9.678;2023-06-04T03:47:22;3.77;;;2.07;;
7821;SDS011;3956;50.558;9.678;2023-06-04T03:49:54;3.77;;;2.40;;
7821;SDS011;3956;50.558;9.678;2023-06-04T03:52:26;4.27;;;2.17;;
7821;SDS011;3956;50.558;9.678;2023-06-04T03:54:58;4.23;;;2.27;;
7821;SDS011;3956;50.558;9.678;2023-06-04T03:57:34;4.87;;;2.60;;
7821;SDS011;3956;50.558;9.678;2023-06-04T04:00:35;3.67;;;2.27;;
7821;SDS011;3956;50.558;9.678;2023-06-04T04:03:22;2.60;;;2.20;;
7821;SDS011;3956;50.558;9.678;2023-06-04T04:06:01;2.97;;;2.07;;
7821;SDS011;3956;50.558;9.678;2023-06-04T04:08:30;3.10;;;2.50;;
7821;SDS011;3956;50.558;9.678;2023-06-04T04:11:04;4.90;;;2.10;;
7821;SDS011;3956;50.558;9.678;2023-06-04T04:14:05;3.40;;;2.30;;
7821;SDS011;3956;50.558;9.678;2023-06-04T04:16:39;5.57;;;2.40;;
7821;SDS011;3956;50.558;9.678;2023-06-04T04:19:14;3.50;;;2.27;;
7821;SDS011;3956;50.558;9.678;2023-06-04T04:21:44;5.17;;;2.43;;
7821;SDS011;3956;50.558;9.678;2023-06-04T04:24:22;3.10;;;2.20;;
7821;SDS011;3956;50.558;9.678;2023-06-04T04:33:01;3.57;;;2.10;;
7821;SDS011;3956;50.558;9.678;2023-06-04T04:35:34;6.97;;;2.10;;
7821;SDS011;3956;50.558;9.678;2023-06-04T04:38:02;4.30;;;2.10;;
7821;SDS011;3956;50.558;9.678;2023-06-04T04:40:32;2.63;;;2.00;;
7821;SDS011;3956;50.558;9.678;2023-06-04T04:43:00;6.97;;;2.50;;
7821;SDS011;3956;50.558;9.678;2023-06-04T04:45:35;5.63;;;2.23;;
7821;SDS011;3956;50.558;9.678;2023-06-04T04:48:04;4.10;;;2.33;;
7821;SDS011;3956;50.558;9.678;2023-06-04T04:50:39;6.53;;;2.37;;
7821;SDS011;3956;50.558;9.678;2023-06-04T04:53:15;3.70;;;2.20;;
7821;SDS011;3956;50.558;9.678;2023-06-04T04:55:45;3.40;;;2.13;;
7821;SDS011;3956;50.558;9.678;2023-06-04T04:58:16;5.93;;;2.50;;
7821;SDS011;3956;50.558;9.678;2023-06-04T05:00:47;3.73;;;2.40;;
7821;SDS011;3956;50.558;9.678;2023-06-04T05:03:17;4.27;;;2.53;;
7821;SDS011;3956;50.558;9.678;2023-06-04T05:05:52;9.27;;;2.67;;
7821;SDS011;3956;50.558;9.678;2023-06-04T05:08:26;3.20;;;2.07;;
7821;SDS011;3956;50.558;9.678;2023-06-04T05:11:14;4.43;;;2.33;;
7821;SDS011;3956;50.558;9.678;2023-06-04T05:13:44;3.07;;;2.23;;
7821;SDS011;3956;50.558;9.678;2023-06-04T05:16:14;4.13;;;2.13;;
7821;SDS011;3956;50.558;9.678;2023-06-04T05:18:47;3.00;;;2.00;;
7821;SDS011;3956;50.558;9.678;2023-06-04T05:21:19;4.83;;;3.33;;
7821;SDS011;3956;50.558;9.678;2023-06-04T05:23:48;3.93;;;2.20;;
7821;SDS011;3956;50.558;9.678;2023-06-04T05:26:22;3.07;;;2.10;;
7821;SDS011;3956;50.558;9.678;2023-06-04T05:28:52;6.10;;;2.30;;
7821;SDS011;3956;50.558;9.678;2023-06-04T05:31:25;6.20;;;2.10;;
7821;SDS011;3956;50.558;9.678;2023-06-04T05:34:01;2.63;;;2.07;;
7821;SDS011;3956;50.558;9.678;2023-06-04T05:36:40;2.90;;;2.20;;
7821;SDS011;3956;50.558;9.678;2023-06-04T05:39:17;8.93;;;2.27;;
7821;SDS011;3956;50.558;9.678;2023-06-04T05:41:46;3.60;;;2.10;;
7821;SDS011;3956;50.558;9.678;2023-06-04T05:44:14;4.67;;;2.37;;
7821;SDS011;3956;50.558;9.678;2023-06-04T05:46:44;6.57;;;2.40;;
7821;SDS011;3956;50.558;9.678;2023-06-04T05:49:16;5.27;;;2.50;;
7821;SDS011;3956;50.558;9.678;2023-06-04T05:51:49;5.13;;;2.57;;
7821;SDS011;3956;50.558;9.678;2023-06-04T05:54:17;3.97;;;2.20;;
7821;SDS011;3956;50.558;9.678;2023-06-04T05:56:46;4.67;;;2.50;;
7821;SDS011;3956;50.558;9.678;2023-06-04T05:59:14;4.40;;;2.30;;
7821;SDS011;3956;50.558;9.678;2023-06-04T06:01:44;4.83;;;2.50;;
7821;SDS011;3956;50.558;9.678;2023-06-04T06:04:15;3.77;;;2.20;;
7821;SDS011;3956;50.558;9.678;2023-06-04T06:06:51;4.20;;;2.50;;
7821;SDS011;3956;50.558;9.678;2023-06-04T06:09:23;3.13;;;2.10;;
7821;SDS011;3956;50.558;9.678;2023-06-04T06:11:53;3.37;;;2.27;;
7821;SDS011;3956;50.558;9.678;2023-06-04T06:14:25;3.90;;;2.20;;
7821;SDS011;3956;50.558;9.678;2023-06-04T06:16:56;6.73;;;2.40;;
7821;SDS011;3956;50.558;9.678;2023-06-04T06:19:30;3.20;;;2.13;;
7821;SDS011;3956;50.558;9.678;2023-06-04T06:22:02;3.73;;;2.10;;
7821;SDS011;3956;50.558;9.678;2023-06-04T06:24:32;5.10;;;2.10;;
7821;SDS011;3956;50.558;9.678;2023-06-04T06:27:00;2.90;;;2.13;;
7821;SDS011;3956;50.558;9.678;2023-06-04T06:29:30;5.57;;;2.20;;
7821;SDS011;3956;50.558;9.678;2023-06-04T06:32:05;7.17;;;2.40;;
7821;SDS011;3956;50.558;9.678;2023-06-04T06:34:38;4.53;;;2.30;;
7821;SDS011;3956;50.558;9.678;2023-06-04T06:37:13;5.67;;;2.17;;
7821;SDS011;3956;50.558;9.678;2023-06-04T06:39:47;5.47;;;2.07;;
7821;SDS011;3956;50.558;9.678;2023-06-04T06:42:32;3.47;;;2.20;;
7821;SDS011;3956;50.558;9.678;2023-06-04T06:45:06;4.67;;;2.60;;
7821;SDS011;3956;50.558;9.678;2023-06-04T06:47:41;6.00;;;2.30;;
7821;SDS011;3956;50.558;9.678;2023-06-04T06:50:14;7.33;;;2.63;;
7821;SDS011;3956;50.558;9.678;2023-06-04T06:52:44;6.70;;;2.33;;
7821;SDS011;3956;50.558;9.678;2023-06-04T06:55:15;6.17;;;2.30;;
7821;SDS011;3956;50.558;9.678;2023-06-04T06:57:50;6.23;;;2.80;;
7821;SDS011;3956;50.558;9.678;2023-06-04T07:00:57;4.50;;;2.60;;
7821;SDS011;3956;50.558;9.678;2023-06-04T07:04:24;3.43;;;2.23;;
7821;SDS011;3956;50.558;9.678;2023-06-04T07:06:55;2.40;;;1.90;;
7821;SDS011;3956;50.558;9.678;2023-06-04T07:09:29;6.90;;;1.93;;
7821;SDS011;3956;50.558;9.678;2023-06-04T07:11:57;4.33;;;2.00;;
7821;SDS011;3956;50.558;9.678;2023-06-04T07:14:27;2.23;;;1.90;;
7821;SDS011;3956;50.558;9.678;2023-06-04T07:16:58;4.17;;;1.83;;
7821;SDS011;3956;50.558;9.678;2023-06-04T07:19:28;5.17;;;1.60;;
7821;SDS011;3956;50.558;9.678;2023-06-04T07:21:58;2.50;;;1.80;;
7821;SDS011;3956;50.558;9.678;2023-06-04T07:24:51;3.63;;;1.50;;
7821;SDS011;3956;50.558;9.678;2023-06-04T07:30:27;4.23;;;1.70;;
7821;SDS011;3956;50.558;9.678;2023-06-04T07:32:57;2.57;;;1.77;;
7821;SDS011;3956;50.558;9.678;2023-06-04T07:35:34;2.80;;;1.60;;
7821;SDS011;3956;50.558;9.678;2023-06-04T07:38:07;1.73;;;1.60;;
7821;SDS011;3956;50.558;9.678;2023-06-04T07:41:08;3.30;;;1.90;;
7821;SDS011;3956;50.558;9.678;2023-06-04T07:43:54;5.33;;;1.93;;
7821;SDS011;3956;50.558;9.678;2023-06-04T07:46:27;2.20;;;1.70;;
7821;SDS011;3956;50.558;9.678;2023-06-04T07:49:18;3.60;;;1.90;;
7821;SDS011;3956;50.558;9.678;2023-06-04T07:51:53;2.87;;;1.93;;
7821;SDS011;3956;50.558;9.678;2023-06-04T07:54:23;3.13;;;1.70;;
7821;SDS011;3956;50.558;9.678;2023-06-04T07:56:56;4.80;;;2.17;;
7821;SDS011;3956;50.558;9.678;2023-06-04T07:59:30;5.17;;;2.30;;
7821;SDS011;3956;50.558;9.678;2023-06-04T08:02:03;3.30;;;1.93;;
7821;SDS011;3956;50.558;9.678;2023-06-04T08:04:38;4.53;;;2.43;;
7821;SDS011;3956;50.558;9.678;2023-06-04T08:07:09;4.00;;;1.80;;
7821;SDS011;3956;50.558;9.678;2023-06-04T08:09:39;4.37;;;2.23;;
7821;SDS011;3956;50.558;9.678;2023-06-04T08:12:22;3.20;;;1.90;;
7821;SDS011;3956;50.558;9.678;2023-06-04T08:15:16;3.63;;;2.10;;
7821;SDS011;3956;50.558;9.678;2023-06-04T08:17:56;4.23;;;2.17;;
7821;SDS011;3956;50.558;9.678;2023-06-04T08:20:42;2.77;;;1.80;;
7821;SDS011;3956;50.558;9.678;2023-06-04T08:23:17;5.27;;;2.23;;
7821;SDS011;3956;50.558;9.678;2023-06-04T08:26:39;3.00;;;1.80;;
7821;SDS011;3956;50.558;9.678;2023-06-04T08:29:16;7.43;;;1.90;;
7821;SDS011;3956;50.558;9.678;2023-06-04T08:31:44;3.00;;;2.30;;
7821;SDS011;3956;50.558;9.678;2023-06-04T08:34:14;2.87;;;2.17;;
7821;SDS011;3956;50.558;9.678;2023-06-04T08:36:49;3.53;;;2.17;;
7821;SDS011;3956;50.558;9.678;2023-06-04T08:39:21;4.00;;;2.00;;
7821;SDS011;3956;50.558;9.678;2023-06-04T08:41:54;5.23;;;2.37;;
7821;SDS011;3956;50.558;9.678;2023-06-04T08:50:53;5.47;;;2.87;;
7821;SDS011;3956;50.558;9.678;2023-06-04T08:53:29;4.00;;;2.53;;
7821;SDS011;3956;50.558;9.678;2023-06-04T08:56:21;4.20;;;2.23;;
7821;SDS011;3956;50.558;9.678;2023-06-04T08:58:55;6.60;;;2.67;;
7821;SDS011;3956;50.558;9.678;2023-06-04T09:01:56;3.60;;;2.20;;
7821;SDS011;3956;50.558;9.678;2023-06-04T09:04:39;4.63;;;2.60;;
7821;SDS011;3956;50.558;9.678;2023-06-04T09:07:10;6.03;;;2.30;;
7821;SDS011;3956;50.558;9.678;2023-06-04T09:10:07;3.63;;;2.40;;
7821;SDS011;3956;50.558;9.678;2023-06-04T09:12:41;4.70;;;2.40;;
7821;SDS011;3956;50.558;9.678;2023-06-04T09:15:14;4.37;;;2.37;;
7821;SDS011;3956;50.558;9.678;2023-06-04T09:18:28;5.70;;;2.50;;
7821;SDS011;3956;50.558;9.678;2023-06-04T09:21:05;4.70;;;2.47;;
7821;SDS011;3956;50.558;9.678;2023-06-04T09:23:43;3.43;;;2.50;;
7821;SDS011;3956;50.558;9.678;2023-06-04T09:26:19;4.60;;;2.30;;
7821;SDS011;3956;50.558;9.678;2023-06-04T09:29:06;6.60;;;2.70;;
7821;SDS011;3956;50.558;9.678;2023-06-04T09:31:37;4.63;;;2.40;;
7821;SDS011;3956;50.558;9.678;2023-06-04T09:34:31;5.50;;;2.47;;
7821;SDS011;3956;50.558;9.678;2023-06-04T09:37:32;2.73;;;2.47;;
7821;SDS011;3956;50.558;9.678;2023-06-04T09:40:06;4.70;;;2.40;;
7821;SDS011;3956;50.558;9.678;2023-06-04T09:42:43;2.90;;;2.40;;
7821;SDS011;3956;50.558;9.678;2023-06-04T09:45:26;5.23;;;2.57;;
7821;SDS011;3956;50.558;9.678;2023-06-04T09:47:59;4.53;;;2.70;;
7821;SDS011;3956;50.558;9.678;2023-06-04T09:50:36;4.63;;;2.63;;
7821;SDS011;3956;50.558;9.678;2023-06-04T09:53:19;4.13;;;2.93;;
7821;SDS011;3956;50.558;9.678;2023-06-04T09:56:05;3.70;;;2.60;;
7821;SDS011;3956;50.558;9.678;2023-06-04T09:58:42;3.07;;;2.63;;
7821;SDS011;3956;50.558;9.678;2023-06-04T10:01:16;5.32;;;3.95;;
7821;SDS011;3956;50.558;9.678;2023-06-04T10:03:47;5.27;;;2.93;;
7821;SDS011;3956;50.558;9.678;2023-06-04T10:06:33;5.33;;;3.07;;
7821;SDS011;3956;50.558;9.678;2023-06-04T10:09:09;3.17;;;2.77;;
7821;SDS011;3956;50.558;9.678;2023-06-04T10:12:10;4.47;;;2.77;;
7821;SDS011;3956;50.558;9.678;2023-06-04T10:14:45;4.60;;;2.80;;
7821;SDS011;3956;50.558;9.678;2023-06-04T10:17:22;5.00;;;3.00;;
7821;SDS011;3956;50.558;9.678;2023-06-04T10:19:54;4.83;;;2.63;;
7821;SDS011;3956;50.558;9.678;2023-06-04T10:22:29;3.17;;;2.60;;
7821;SDS011;3956;50.558;9.678;2023-06-04T10:25:15;4.47;;;2.90;;
7821;SDS011;3956;50.558;9.678;2023-06-04T10:27:59;3.13;;;2.80;;
7821;SDS011;3956;50.558;9.678;2023-06-04T10:31:00;3.27;;;2.60;;
7821;SDS011;3956;50.558;9.678;2023-06-04T10:33:55;4.27;;;3.13;;
7821;SDS011;3956;50.558;9.678;2023-06-04T10:36:52;3.37;;;2.80;;
7821;SDS011;3956;50.558;9.678;2023-06-04T10:39:49;3.97;;;3.57;;
7821;SDS011;3956;50.558;9.678;2023-06-04T10:46:12;4.00;;;3.10;;
7821;SDS011;3956;50.558;9.678;2023-06-04T10:49:31;3.43;;;3.10;;
7821;SDS011;3956;50.558;9.678;2023-06-04T10:52:28;3.97;;;3.23;;
7821;SDS011;3956;50.558;9.678;2023-06-04T10:55:22;3.57;;;2.90;;
7821;SDS011;3956;50.558;9.678;2023-06-04T10:58:31;4.10;;;3.10;;
7821;SDS011;3956;50.558;9.678;2023-06-04T11:01:26;5.53;;;3.33;;
7821;SDS011;3956;50.558;9.678;2023-06-04T11:04:22;5.07;;;3.47;;
7821;SDS011;3956;50.558;9.678;2023-06-04T11:07:17;5.07;;;3.40;;
7821;SDS011;3956;50.558;9.678;2023-06-04T11:10:15;5.90;;;3.27;;
7821;SDS011;3956;50.558;9.678;2023-06-04T11:13:06;6.70;;;3.27;;
7821;SDS011;3956;50.558;9.678;2023-06-04T11:19:35;4.17;;;3.23;;
7821;SDS011;3956;50.558;9.678;2023-06-04T11:22:29;4.87;;;3.27;;
7821;SDS011;3956;50.558;9.678;2023-06-04T11:25:26;4.43;;;3.70;;
7821;SDS011;3956;50.558;9.678;2023-06-04T11:31:42;3.90;;;3.43;;
7821;SDS011;3956;50.558;9.678;2023-06-04T11:34:40;3.60;;;2.93;;
7821;SDS011;3956;50.558;9.678;2023-06-04T11:41:24;4.23;;;3.80;;
7821;SDS011;3956;50.558;9.678;2023-06-04T11:44:20;5.20;;;3.53;;
7821;SDS011;3956;50.558;9.678;2023-06-04T11:47:21;5.43;;;3.60;;
7821;SDS011;3956;50.558;9.678;2023-06-04T11:50:15;6.37;;;3.40;;
7821;SDS011;3956;50.558;9.678;2023-06-04T11:53:11;4.53;;;3.40;;
7821;SDS011;3956;50.558;9.678;2023-06-04T11:55:58;7.47;;;3.63;;
7821;SDS011;3956;50.558;9.678;2023-06-04T11:58:54;4.23;;;3.53;;
7821;SDS011;3956;50.558;9.678;2023-06-04T12:01:53;6.72;;;3.55;;
7821;SDS011;3956;50.558;9.678;2023-06-04T12:04:56;4.00;;;3.10;;
7821;SDS011;3956;50.558;9.678;2023-06-04T12:08:53;4.40;;;3.03;;
7821;SDS011;3956;50.558;9.678;2023-06-04T12:11:58;4.53;;;3.30;;
7821;SDS011;3956;50.558;9.678;2023-06-04T12:14:58;4.80;;;3.80;;
7821;SDS011;3956;50.558;9.678;2023-06-04T12:17:55;6.03;;;3.77;;
7821;SDS011;3956;50.558;9.678;2023-06-04T12:21:20;6.80;;;3.87;;
7821;SDS011;3956;50.558;9.678;2023-06-04T12:24:18;4.17;;;3.67;;
7821;SDS011;3956;50.558;9.678;2023-06-04T12:27:13;6.20;;;3.00;;
7821;SDS011;3956;50.558;9.678;2023-06-04T12:30:09;4.00;;;2.87;;
7821;SDS011;3956;50.558;9.678;2023-06-04T12:33:24;3.53;;;2.60;;
7821;SDS011;3956;50.558;9.678;2023-06-04T12:36:47;3.83;;;3.20;;
7821;SDS011;3956;50.558;9.678;2023-06-04T12:39:44;5.53;;;2.50;;
7821;SDS011;3956;50.558;9.678;2023-06-04T12:42:50;3.60;;;2.90;;
7821;SDS011;3956;50.558;9.678;2023-06-04T12:45:48;4.30;;;3.07;;
7821;SDS011;3956;50.558;9.678;2023-06-04T12:49:02;7.73;;;3.03;;
7821;SDS011;3956;50.558;9.678;2023-06-04T12:59:18;4.53;;;2.53;;
7821;SDS011;3956;50.558;9.678;2023-06-04T13:02:13;6.67;;;3.40;;
7821;SDS011;3956;50.558;9.678;2023-06-04T13:05:07;3.83;;;2.40;;
7821;SDS011;3956;50.558;9.678;2023-06-04T13:07:58;5.10;;;2.50;;
7821;SDS011;3956;50.558;9.678;2023-06-04T13:11:02;4.03;;;2.40;;
7821;SDS011;3956;50.558;9.678;2023-06-04T13:14:22;4.83;;;2.80;;
7821;SDS011;3956;50.558;9.678;2023-06-04T13:17:24;4.60;;;2.37;;
7821;SDS011;3956;50.558;9.678;2023-06-04T13:20:18;3.90;;;2.33;;
7821;SDS011;3956;50.558;9.678;2023-06-04T13:23:13;5.47;;;2.30;;
7821;SDS011;3956;50.558;9.678;2023-06-04T13:26:35;4.87;;;2.47;;
7821;SDS011;3956;50.558;9.678;2023-06-04T13:30:26;4.17;;;2.03;;
7821;SDS011;3956;50.558;9.678;2023-06-04T13:33:22;3.23;;;2.50;;
7821;SDS011;3956;50.558;9.678;2023-06-04T13:36:36;4.43;;;2.63;;
7821;SDS011;3956;50.558;9.678;2023-06-04T13:39:43;3.07;;;2.20;;
7821;SDS011;3956;50.558;9.678;2023-06-04T14:32:26;2.47;;;1.70;;
7821;SDS011;3956;50.558;9.678;2023-06-04T14:35:42;6.40;;;1.83;;
7821;SDS011;3956;50.558;9.678;2023-06-04T14:38:19;3.10;;;1.73;;
7821;SDS011;3956;50.558;9.678;2023-06-04T14:40:57;2.50;;;1.60;;
7821;SDS011;3956;50.558;9.678;2023-06-04T14:43:37;2.70;;;1.70;;
7821;SDS011;3956;50.558;9.678;2023-06-04T14:46:09;5.63;;;2.10;;
7821;SDS011;3956;50.558;9.678;2023-06-04T14:48:45;4.67;;;1.90;;
7821;SDS011;3956;50.558;9.678;2023-06-04T14:51:19;3.00;;;1.77;;
7821;SDS011;3956;50.558;9.678;2023-06-04T14:53:55;2.60;;;1.90;;
7821;SDS011;3956;50.558;9.678;2023-06-04T14:56:39;6.90;;;2.23;;
7821;SDS011;3956;50.558;9.678;2023-06-04T14:59:12;2.57;;;1.83;;
7821;SDS011;3956;50.558;9.678;2023-06-04T15:01:42;3.50;;;2.10;;
7821;SDS011;3956;50.558;9.678;2023-06-04T15:04:17;3.80;;;2.37;;
7821;SDS011;3956;50.558;9.678;2023-06-04T15:06:58;2.20;;;1.70;;
7821;SDS011;3956;50.558;9.678;2023-06-04T15:09:28;2.27;;;1.50;;
7821;SDS011;3956;50.558;9.678;2023-06-04T15:11:59;2.77;;;1.50;;
7821;SDS011;3956;50.558;9.678;2023-06-04T15:14:42;5.03;;;1.70;;
7821;SDS011;3956;50.558;9.678;2023-06-04T15:17:13;2.70;;;2.10;;
7821;SDS011;3956;50.558;9.678;2023-06-04T15:23:11;2.20;;;1.77;;
7821;SDS011;3956;50.558;9.678;2023-06-04T15:26:08;2.63;;;1.70;;
7821;SDS011;3956;50.558;9.678;2023-06-04T15:28:46;2.30;;;1.47;;
7821;SDS011;3956;50.558;9.678;2023-06-04T15:31:21;3.87;;;1.70;;
7821;SDS011;3956;50.558;9.678;2023-06-04T15:34:26;4.50;;;1.97;;
7821;SDS011;3956;50.558;9.678;2023-06-04T15:37:27;3.10;;;1.90;;
7821;SDS011;3956;50.558;9.678;2023-06-04T15:39:59;2.53;;;1.70;;
7821;SDS011;3956;50.558;9.678;2023-06-04T15:42:29;2.50;;;2.00;;
7821;SDS011;3956;50.558;9.678;2023-06-04T15:45:06;4.23;;;1.70;;
7821;SDS011;3956;50.558;9.678;2023-06-04T15:48:35;4.23;;;1.80;;
7821;SDS011;3956;50.558;9.678;2023-06-04T15:51:06;2.40;;;1.60;;
7821;SDS011;3956;50.558;9.678;2023-06-04T15:54:05;4.03;;;1.50;;
7821;SDS011;3956;50.558;9.678;2023-06-04T15:56:47;4.00;;;1.60;;
7821;SDS011;3956;50.558;9.678;2023-06-04T15:59:20;4.27;;;2.00;;
7821;SDS011;3956;50.558;9.678;2023-06-04T16:01:59;3.63;;;1.90;;
7821;SDS011;3956;50.558;9.678;2023-06-04T16:04:33;3.20;;;1.60;;
7821;SDS011;3956;50.558;9.678;2023-06-04T16:07:19;3.13;;;1.90;;
7821;SDS011;3956;50.558;9.678;2023-06-04T16:10:24;3.77;;;1.60;;
7821;SDS011;3956;50.558;9.678;2023-06-04T16:14:04;4.83;;;1.80;;
7821;SDS011;3956;50.558;9.678;2023-06-04T16:16:34;3.93;;;1.70;;
7821;SDS011;3956;50.558;9.678;2023-06-04T16:19:05;5.13;;;2.10;;
7821;SDS011;3956;50.558;9.678;2023-06-04T16:21:36;4.23;;;1.73;;
7821;SDS011;3956;50.558;9.678;2023-06-04T16:24:04;2.23;;;1.80;;
7821;SDS011;3956;50.558;9.678;2023-06-04T16:26:33;3.43;;;1.73;;
7821;SDS011;3956;50.558;9.678;2023-06-04T16:29:07;5.03;;;2.03;;
7821;SDS011;3956;50.558;9.678;2023-06-04T16:31:36;5.33;;;2.10;;
7821;SDS011;3956;50.558;9.678;2023-06-04T16:34:06;4.00;;;1.87;;
7821;SDS011;3956;50.558;9.678;2023-06-04T16:36:36;7.17;;;1.90;;
7821;SDS011;3956;50.558;9.678;2023-06-04T16:39:05;4.03;;;2.03;;
7821;SDS011;3956;50.558;9.678;2023-06-04T16:41:36;5.57;;;2.13;;
7821;SDS011;3956;50.558;9.678;2023-06-04T16:44:06;5.80;;;2.00;;
7821;SDS011;3956;50.558;9.678;2023-06-04T16:46:38;6.33;;;2.33;;
7821;SDS011;3956;50.558;9.678;2023-06-04T16:49:10;4.10;;;2.23;;
7821;SDS011;3956;50.558;9.678;2023-06-04T16:51:39;4.17;;;1.90;;
7821;SDS011;3956;50.558;9.678;2023-06-04T16:54:10;2.60;;;1.60;;
7821;SDS011;3956;50.558;9.678;2023-06-04T16:56:41;4.17;;;1.97;;
7821;SDS011;3956;50.558;9.678;2023-06-04T16:59:20;2.07;;;1.53;;
7821;SDS011;3956;50.558;9.678;2023-06-04T17:01:59;2.20;;;1.60;;
7821;SDS011;3956;50.558;9.678;2023-06-04T17:04:50;4.63;;;2.17;;
7821;SDS011;3956;50.558;9.678;2023-06-04T17:08:04;3.63;;;2.10;;
7821;SDS011;3956;50.558;9.678;2023-06-04T17:10:36;4.00;;;1.90;;
7821;SDS011;3956;50.558;9.678;2023-06-04T17:13:06;3.43;;;1.93;;
7821;SDS011;3956;50.558;9.678;2023-06-04T17:15:51;8.97;;;2.37;;
7821;SDS011;3956;50.558;9.678;2023-06-04T17:18:25;4.53;;;2.20;;
7821;SDS011;3956;50.558;9.678;2023-06-04T17:20:58;4.87;;;2.30;;
7821;SDS011;3956;50.558;9.678;2023-06-04T17:23:32;3.50;;;2.10;;
7821;SDS011;3956;50.558;9.678;2023-06-04T17:26:05;3.43;;;1.87;;
7821;SDS011;3956;50.558;9.678;2023-06-04T17:29:03;4.07;;;2.33;;
7821;SDS011;3956;50.558;9.678;2023-06-04T17:31:52;4.53;;;2.70;;
7821;SDS011;3956;50.558;9.678;2023-06-04T17:34:27;3.60;;;2.20;;
7821;SDS011;3956;50.558;9.678;2023-06-04T17:37:00;2.40;;;1.60;;
7821;SDS011;3956;50.558;9.678;2023-06-04T17:39:34;3.30;;;1.70;;
7821;SDS011;3956;50.558;9.678;2023-06-04T17:42:12;4.67;;;2.73;;
7821;SDS011;3956;50.558;9.678;2023-06-04T17:44:55;2.80;;;1.87;;
7821;SDS011;3956;50.558;9.678;2023-06-04T17:47:43;3.20;;;1.70;;
7821;SDS011;3956;50.558;9.678;2023-06-04T17:50:15;5.97;;;2.17;;
7821;SDS011;3956;50.558;9.678;2023-06-04T17:53:02;5.13;;;2.27;;
7821;SDS011;3956;50.558;9.678;2023-06-04T17:56:49;2.50;;;1.70;;
7821;SDS011;3956;50.558;9.678;2023-06-04T17:59:21;4.00;;;1.60;;
7821;SDS011;3956;50.558;9.678;2023-06-04T18:01:55;2.50;;;1.63;;
7821;SDS011;3956;50.558;9.678;2023-06-04T18:04:45;2.17;;;1.40;;
7821;SDS011;3956;50.558;9.678;2023-06-04T18:07:31;3.97;;;2.00;;
7821;SDS011;3956;50.558;9.678;2023-06-04T18:10:28;2.43;;;1.70;;
7821;SDS011;3956;50.558;9.678;2023-06-04T18:13:02;3.53;;;2.00;;
7821;SDS011;3956;50.558;9.678;2023-06-04T18:15:57;2.13;;;1.53;;
7821;SDS011;3956;50.558;9.678;2023-06-04T18:18:26;5.53;;;2.13;;